createdAt,value
2019-06-08T00:02:22.977Z,100576.99
2019-06-08T00:04:52.556Z,100596.02
2019-06-08T00:07:23.123Z,100594.36
2019-06-08T00:09:52.719Z,100607.63
2019-06-08T00:12:23.273Z,100589.59
2019-06-08T00:14:52.934Z,100596.48
2019-06-08T00:17:34.351Z,100616.84
2019-06-08T00:20:13.527Z,100620.44
2019-06-08T00:22:43.092Z,100631.56
2019-06-08T00:25:13.781Z,100622.23
2019-06-08T00:27:43.342Z,100628.45
2019-06-08T00:30:13.479Z,100616.64
2019-06-08T00:32:42.904Z,100625.84
2019-06-08T00:35:13.019Z,100639.95
2019-06-08T00:37:42.465Z,100648.62
2019-06-08T00:40:12.026Z,100658.46
2019-06-08T00:42:41.474Z,100655.34
2019-06-08T00:45:12.073Z,100668.28
2019-06-08T00:47:47.990Z,100671.23
2019-06-08T00:50:13.320Z,100671.22
2019-06-08T00:52:42.756Z,100676.15
2019-06-08T00:55:12.838Z,100686.30
2019-06-08T00:57:42.343Z,100689.09
2019-06-08T01:00:12.183Z,100685.49
2019-06-08T01:02:41.619Z,100690.06
2019-06-08T01:05:11.327Z,100684.33
2019-06-08T01:07:40.777Z,100692.22
2019-06-08T01:10:10.806Z,100700.73
2019-06-08T01:12:40.411Z,100711.37
2019-06-08T01:15:11.009Z,100731.04
2019-06-08T01:17:40.516Z,100717.28
2019-06-08T01:20:10.351Z,100707.78
2019-06-08T01:22:39.787Z,100731.37
2019-06-08T01:25:09.445Z,100717.27
2019-06-08T01:27:38.849Z,100723.50
2019-06-08T01:30:11.397Z,100722.85
2019-06-08T01:32:40.889Z,100705.80
2019-06-08T01:35:10.527Z,100725.66
2019-06-08T01:37:39.969Z,100722.98
2019-06-08T01:40:10.106Z,100738.90
2019-06-08T01:42:39.857Z,100732.03
2019-06-08T01:45:10.344Z,100752.13
2019-06-08T01:47:39.755Z,100749.70
2019-06-08T01:50:09.316Z,100767.69
2019-06-08T01:52:38.760Z,100755.52
2019-06-08T01:55:08.332Z,100764.37
2019-06-08T01:57:37.760Z,100761.41
2019-06-08T02:00:29.509Z,100770.56
2019-06-08T02:02:39.865Z,100763.69
2019-06-08T02:05:09.732Z,100782.72
2019-06-08T02:07:39.219Z,100780.42
2019-06-08T02:10:09.863Z,100787.94
2019-06-08T02:12:39.347Z,100783.34
2019-06-08T02:15:09.279Z,100808.73
2019-06-08T02:17:38.846Z,100803.49
2019-06-08T02:20:09.090Z,100801.03
2019-06-08T02:22:39.404Z,100803.33
2019-06-08T02:25:10.521Z,100802.32
2019-06-08T02:27:40.253Z,100804.09
2019-06-08T02:30:14.416Z,100814.84
2019-06-08T02:32:43.841Z,100828.67
2019-06-08T02:35:13.983Z,100824.77
2019-06-08T02:37:43.429Z,100828.53
2019-06-08T02:40:13.543Z,100829.77
2019-06-08T02:42:43.071Z,100827.64
2019-06-08T02:45:14.393Z,100842.13
2019-06-08T02:47:43.818Z,100842.66
2019-06-08T02:50:14.365Z,100854.73
2019-06-08T02:52:45.557Z,100855.13
2019-06-08T02:55:16.485Z,100847.78
2019-06-08T02:57:50.851Z,100844.55
2019-06-08T03:00:20.682Z,100846.84
2019-06-08T03:02:52.332Z,100847.89
2019-06-08T03:05:22.147Z,100855.17
2019-06-08T03:07:53.915Z,100851.77
2019-06-08T03:10:23.408Z,100856.19
2019-06-08T03:12:55.329Z,100870.77
2019-06-08T03:15:34.287Z,100875.19
2019-06-08T03:18:02.765Z,100870.23
2019-06-08T03:20:33.468Z,100882.59
2019-06-08T03:23:03.501Z,100889.72
2019-06-08T03:25:42.020Z,100866.72
2019-06-08T03:28:04.476Z,100892.64
2019-06-08T03:30:37.728Z,100909.21
2019-06-08T03:33:05.194Z,100935.55
2019-06-08T03:35:38.372Z,100917.02
2019-06-08T03:38:06.113Z,100904.05
2019-06-08T03:40:35.922Z,100927.11
2019-06-08T03:43:05.553Z,100918.92
2019-06-08T03:45:36.393Z,100933.78
2019-06-08T03:48:06.005Z,100936.38
2019-06-08T03:50:37.054Z,100932.89
2019-06-08T03:53:06.606Z,100941.02
2019-06-08T03:55:37.797Z,100936.39
2019-06-08T03:58:07.286Z,100932.80
2019-06-08T04:00:38.146Z,100930.82
2019-06-08T04:03:07.772Z,100947.19
2019-06-08T04:05:39.793Z,100965.40
2019-06-08T04:08:08.693Z,100949.42
2019-06-08T04:10:39.737Z,100956.56
2019-06-08T04:13:11.658Z,100957.42
2019-06-08T04:15:42.119Z,100971.02
2019-06-08T04:18:11.680Z,100967.96
2019-06-08T04:20:43.587Z,100967.30
2019-06-08T04:23:12.517Z,100965.94
2019-06-08T04:25:42.545Z,100968.41
2019-06-08T04:28:12.452Z,100974.84
2019-06-08T04:30:42.985Z,100976.30
2019-06-08T04:33:13.055Z,101002.92
2019-06-08T04:35:44.330Z,100975.55
2019-06-08T04:38:13.705Z,100992.87
2019-06-08T04:40:43.489Z,101000.84
2019-06-08T04:43:13.085Z,101021.07
2019-06-08T04:45:43.531Z,101018.68
2019-06-08T04:48:13.990Z,101014.09
2019-06-08T04:50:45.294Z,101020.09
2019-06-08T04:53:14.562Z,101023.53
2019-06-08T04:55:45.497Z,101023.85
2019-06-08T04:58:16.346Z,101047.42
2019-06-08T05:00:48.073Z,101047.58
2019-06-08T05:03:17.279Z,101064.37
2019-06-08T05:05:47.648Z,101054.17
2019-06-08T05:08:17.861Z,101056.94
2019-06-08T05:10:47.556Z,101068.52
2019-06-08T05:13:17.204Z,101059.66
2019-06-08T05:15:47.470Z,101066.60
2019-06-08T05:18:16.980Z,101069.88
2019-06-08T05:20:48.885Z,101077.06
2019-06-08T05:23:17.610Z,101072.75
2019-06-08T05:25:47.258Z,101084.52
2019-06-08T05:28:17.070Z,101089.52
2019-06-08T05:30:47.383Z,101097.52
2019-06-08T05:33:17.161Z,101106.78
2019-06-08T05:35:47.575Z,101108.10
2019-06-08T05:38:17.219Z,101084.34
2019-06-08T05:40:47.683Z,101098.38
2019-06-08T05:43:17.218Z,101116.68
2019-06-08T05:45:48.348Z,101109.88
2019-06-08T05:48:19.663Z,101115.91
2019-06-08T05:51:00.194Z,101128.28
2019-06-08T05:53:20.745Z,101111.18
2019-06-08T05:55:50.287Z,101137.03
2019-06-08T05:58:20.107Z,101138.34
2019-06-08T06:00:50.659Z,101136.69
2019-06-08T06:03:20.756Z,101141.00
2019-06-08T06:05:50.797Z,101143.62
2019-06-08T06:08:20.537Z,101161.77
2019-06-08T06:10:51.324Z,101151.09
2019-06-08T06:13:20.933Z,101151.03
2019-06-08T06:15:51.761Z,101154.76
2019-06-08T06:18:21.452Z,101142.78
2019-06-08T06:20:51.609Z,101145.58
2019-06-08T06:23:21.305Z,101156.55
2019-06-08T06:25:51.776Z,101149.14
2019-06-08T06:28:21.364Z,101164.13
2019-06-08T06:30:52.240Z,101175.02
2019-06-08T06:33:21.807Z,101161.80
2019-06-08T06:35:52.151Z,101178.65
2019-06-08T06:38:22.074Z,101184.98
2019-06-08T06:40:52.197Z,101193.06
2019-06-08T06:43:22.015Z,101199.63
2019-06-08T06:45:52.174Z,101196.03
2019-06-08T06:48:23.779Z,101204.28
2019-06-08T06:50:53.545Z,101205.35
2019-06-08T06:53:22.965Z,101226.17
2019-06-08T06:55:53.375Z,101222.30
2019-06-08T06:58:23.069Z,101231.53
2019-06-08T07:00:53.715Z,101231.70
2019-06-08T07:03:23.637Z,101240.39
2019-06-08T07:05:54.173Z,101243.92
2019-06-08T07:08:23.894Z,101251.20
2019-06-08T07:10:55.061Z,101253.87
2019-06-08T07:13:24.911Z,101253.87
2019-06-08T07:15:58.009Z,101263.53
2019-06-08T07:18:26.411Z,101271.35
2019-06-08T07:20:56.107Z,101278.83
2019-06-08T07:23:35.366Z,101284.74
2019-06-08T07:26:04.966Z,101279.59
2019-06-08T07:28:39.526Z,101286.61
2019-06-08T07:31:09.057Z,101292.83
2019-06-08T07:33:38.953Z,101303.86
2019-06-08T07:36:10.725Z,101304.84
2019-06-08T07:38:43.666Z,101316.88
2019-06-08T07:41:13.091Z,101301.01
2019-06-08T07:43:42.516Z,101312.28
2019-06-08T07:46:11.998Z,101321.59
2019-06-08T07:48:41.576Z,101349.59
2019-06-08T07:51:11.063Z,101349.55
2019-06-08T07:53:40.492Z,101349.97
2019-06-08T07:56:09.940Z,101357.39
2019-06-08T07:58:41.642Z,101363.55
2019-06-08T08:01:11.359Z,101359.23
2019-06-08T08:03:41.722Z,101375.83
2019-06-08T08:06:11.735Z,101365.47
2019-06-08T08:08:41.846Z,101370.73
2019-06-08T08:11:11.275Z,101371.84
2019-06-08T08:13:40.850Z,101371.80
2019-06-08T08:16:10.407Z,101391.22
2019-06-08T08:18:40.145Z,101371.63
2019-06-08T08:21:21.826Z,101377.16
2019-06-08T08:23:40.727Z,101400.09
2019-06-08T08:26:10.477Z,101408.12
2019-06-08T08:28:40.228Z,101410.41
2019-06-08T08:31:11.426Z,101422.50
2019-06-08T08:33:40.968Z,101423.83
2019-06-08T08:36:10.543Z,101429.52
2019-06-08T08:38:41.063Z,101436.30
2019-06-08T08:41:11.029Z,101432.59
2019-06-08T08:43:40.512Z,101436.47
2019-06-08T08:46:10.048Z,101461.30
2019-06-08T08:48:39.645Z,101467.02
2019-06-08T08:51:09.060Z,101466.50
2019-06-08T08:53:38.511Z,101474.75
2019-06-08T08:56:07.938Z,101485.17
2019-06-08T08:58:38.083Z,101477.55
2019-06-08T09:01:08.282Z,101486.78
2019-06-08T09:03:39.583Z,101486.02
2019-06-08T09:06:09.102Z,101476.30
2019-06-08T09:08:38.682Z,101495.70
2019-06-08T09:11:08.403Z,101484.48
2019-06-08T09:13:37.884Z,101492.13
2019-06-08T09:16:08.053Z,101492.30
2019-06-08T09:18:37.725Z,101482.83
2019-06-08T09:21:08.436Z,101471.09
2019-06-08T09:23:40.854Z,101486.00
2019-06-08T09:26:13.091Z,101482.14
2019-06-08T09:28:41.550Z,101495.03
2019-06-08T09:31:12.954Z,101493.14
2019-06-08T09:33:42.272Z,101495.47
2019-06-08T09:36:11.783Z,101491.55
2019-06-08T09:38:41.212Z,101493.16
2019-06-08T09:41:10.685Z,101501.14
2019-06-08T09:43:40.147Z,101520.97
2019-06-08T09:46:09.741Z,101519.55
2019-06-08T09:48:39.206Z,101533.58
2019-06-08T09:51:09.397Z,101533.26
2019-06-08T09:53:41.712Z,101549.20
2019-06-08T09:56:10.731Z,101538.30
2019-06-08T09:58:40.187Z,101548.48
2019-06-08T10:01:12.333Z,101560.95
2019-06-08T10:03:40.876Z,101554.20
2019-06-08T10:06:12.487Z,101560.73
2019-06-08T10:08:41.556Z,101547.24
2019-06-08T10:11:11.067Z,101566.78
2019-06-08T10:13:43.228Z,101575.02
2019-06-08T10:16:11.789Z,101572.41
2019-06-08T10:18:41.221Z,101584.92
2019-06-08T10:21:10.711Z,101582.10
2019-06-08T10:23:41.809Z,101595.19
2019-06-08T10:26:12.142Z,101602.45
2019-06-08T10:28:41.637Z,101595.75
2019-06-08T10:31:11.042Z,101598.94
2019-06-08T10:33:40.943Z,101599.47
2019-06-08T10:36:12.942Z,101601.49
2019-06-08T10:38:41.910Z,101587.34
2019-06-08T10:41:17.646Z,101595.33
2019-06-08T10:43:42.778Z,101601.13
2019-06-08T10:46:17.401Z,101618.22
2019-06-08T10:48:43.782Z,101598.13
2019-06-08T10:51:13.504Z,101605.22
2019-06-08T10:53:49.189Z,101626.43
2019-06-08T10:56:14.457Z,101616.42
2019-06-08T10:58:43.951Z,101630.22
2019-06-08T11:01:13.609Z,101634.98
2019-06-08T11:03:43.255Z,101629.63
2019-06-08T11:06:13.424Z,101639.73
2019-06-08T11:08:43.202Z,101632.52
2019-06-08T11:11:13.093Z,101644.33
2019-06-08T11:13:42.678Z,101646.80
2019-06-08T11:16:13.442Z,101661.58
2019-06-08T11:18:43.550Z,101652.19
2019-06-08T11:21:13.151Z,101664.90
2019-06-08T11:23:42.673Z,101670.31
2019-06-08T11:26:19.598Z,101681.14
2019-06-08T11:28:43.333Z,101676.45
2019-06-08T11:31:16.013Z,101693.50
2019-06-08T11:33:44.101Z,101676.00
2019-06-08T11:36:14.947Z,101702.30
2019-06-08T11:38:44.781Z,101691.87
2019-06-08T11:41:14.242Z,101685.08
2019-06-08T11:43:43.709Z,101695.70
2019-06-08T11:46:13.144Z,101694.78
2019-06-08T11:48:42.569Z,101700.70
2019-06-08T11:51:13.108Z,101710.25
2019-06-08T11:53:42.896Z,101724.98
2019-06-08T11:56:13.580Z,101734.64
2019-06-08T11:58:44.037Z,101762.11
2019-06-08T12:01:15.287Z,101751.95
2019-06-08T12:03:45.013Z,101750.07
2019-06-08T12:06:14.678Z,101740.00
2019-06-08T12:08:44.352Z,101736.59
2019-06-08T12:11:18.171Z,101739.44
2019-06-08T12:13:46.909Z,101737.14
2019-06-08T12:16:21.922Z,101727.77
2019-06-08T12:18:49.264Z,101734.83
2019-06-08T12:21:18.706Z,101754.16
2019-06-08T12:23:48.160Z,101751.07
2019-06-08T12:26:17.592Z,101770.11
2019-06-08T12:28:48.678Z,101765.76
2019-06-08T12:31:22.345Z,101779.66
2019-06-08T12:33:49.524Z,101796.42
2019-06-08T12:36:20.536Z,101792.05
2019-06-08T12:38:50.350Z,101790.94
2019-06-08T12:41:19.766Z,101799.64
2019-06-08T12:43:49.527Z,101795.36
2019-06-08T12:46:20.986Z,101794.88
2019-06-08T12:48:50.109Z,101783.38
2019-06-08T12:51:21.446Z,101783.13
2019-06-08T12:53:50.716Z,101779.94
2019-06-08T12:56:23.936Z,101777.60
2019-06-08T12:58:51.684Z,101780.57
2019-06-08T13:01:21.124Z,101781.64
2019-06-08T13:03:50.555Z,101790.42
2019-06-08T13:06:20.122Z,101801.70
2019-06-08T13:08:49.637Z,101801.05
2019-06-08T13:11:21.194Z,101784.58
2019-06-08T13:13:50.344Z,101786.92
2019-06-08T13:16:24.291Z,101770.28
2019-06-08T13:18:51.014Z,101771.57
2019-06-08T13:21:31.917Z,101776.94
2019-06-08T13:23:51.641Z,101783.11
2019-06-08T13:26:27.489Z,101777.86
2019-06-08T13:28:52.182Z,101774.83
2019-06-08T13:31:24.500Z,101786.42
2019-06-08T13:33:53.086Z,101776.23
2019-06-08T13:36:26.413Z,101781.89
2019-06-08T13:38:53.670Z,101811.37
2019-06-08T13:41:26.326Z,101797.70
2019-06-08T13:43:54.283Z,101817.20
2019-06-08T13:46:23.754Z,101825.94
2019-06-08T13:48:53.212Z,101858.84
2019-06-08T13:51:24.121Z,101859.98
2019-06-08T13:53:53.709Z,101870.87
2019-06-08T13:56:24.080Z,101862.33
2019-06-08T13:58:53.551Z,101858.64
2019-06-08T14:01:23.791Z,101856.50
2019-06-08T14:03:54.185Z,101850.13
2019-06-08T14:06:24.887Z,101842.53
2019-06-08T14:08:55.038Z,101836.81
2019-06-08T14:11:25.279Z,101833.45
2019-06-08T14:13:55.430Z,101842.71
2019-06-08T14:16:27.198Z,101841.47
2019-06-08T14:18:56.364Z,101839.90
2019-06-08T14:21:32.010Z,101843.97
2019-06-08T14:24:00.178Z,101845.28
2019-06-08T14:26:29.719Z,101859.09
2019-06-08T14:29:01.637Z,101856.77
2019-06-08T14:31:32.013Z,101865.57
2019-06-08T14:34:01.555Z,101841.70
2019-06-08T14:36:31.067Z,101839.73
2019-06-08T14:39:02.367Z,101843.11
2019-06-08T14:41:31.725Z,101857.58
2019-06-08T14:44:01.193Z,101831.29
2019-06-08T14:46:30.916Z,101834.52
2019-06-08T14:49:00.330Z,101845.70
2019-06-08T14:51:48.943Z,101851.39
2019-06-08T14:54:24.372Z,101850.78
2019-06-08T14:56:51.269Z,101854.41
2019-06-08T14:59:21.973Z,101836.38
2019-06-08T15:01:51.952Z,101860.41
2019-06-08T15:04:23.861Z,101863.72
2019-06-08T15:06:52.719Z,101859.01
2019-06-08T15:09:23.347Z,101867.28
2019-06-08T15:11:52.983Z,101862.84
2019-06-08T15:14:23.541Z,101871.18
2019-06-08T15:16:53.203Z,101878.14
2019-06-08T15:19:22.633Z,101881.52
2019-06-08T15:21:52.066Z,101880.91
2019-06-08T15:24:22.618Z,101882.80
2019-06-08T15:26:52.156Z,101882.28
2019-06-08T15:29:22.879Z,101884.60
2019-06-08T15:31:52.372Z,101899.29
2019-06-08T15:34:23.092Z,101887.56
2019-06-08T15:36:52.895Z,101889.83
2019-06-08T15:39:23.410Z,101891.12
2019-06-08T15:41:52.994Z,101908.52
2019-06-08T15:44:24.250Z,101903.72
2019-06-08T15:46:53.850Z,101908.75
2019-06-08T15:49:24.135Z,101914.38
2019-06-08T15:51:53.622Z,101909.37
2019-06-08T15:54:23.060Z,101916.54
2019-06-08T15:56:52.492Z,101914.18
2019-06-08T15:59:23.139Z,101932.84
2019-06-08T16:01:55.691Z,101922.27
2019-06-08T16:04:25.722Z,101923.91
2019-06-08T16:06:55.294Z,101922.87
2019-06-08T16:09:25.855Z,101924.70
2019-06-08T16:11:55.551Z,101938.13
2019-06-08T16:14:29.059Z,101934.22
2019-06-08T16:16:59.039Z,101935.87
2019-06-08T16:19:29.619Z,101950.09
2019-06-08T16:21:59.161Z,101955.99
2019-06-08T16:24:29.773Z,101945.11
2019-06-08T16:26:59.342Z,101960.41
2019-06-08T16:29:29.067Z,101952.68
2019-06-08T16:31:58.522Z,101955.05
2019-06-08T16:34:29.168Z,101943.12
2019-06-08T16:37:03.716Z,101955.20
2019-06-08T16:39:35.509Z,101953.17
2019-06-08T16:42:04.994Z,101968.38
2019-06-08T16:44:36.281Z,101964.05
2019-06-08T16:47:06.050Z,101970.19
2019-06-08T16:49:35.515Z,101969.52
2019-06-08T16:52:09.106Z,101974.78
2019-06-08T16:54:44.016Z,101961.93
2019-06-08T16:57:13.571Z,101972.28
2019-06-08T16:59:43.022Z,101970.34
2019-06-08T17:02:16.539Z,101962.03
2019-06-08T17:04:44.381Z,101979.39
2019-06-08T17:07:14.039Z,101970.39
2019-06-08T17:09:43.557Z,101969.19
2019-06-08T17:12:13.104Z,101982.73
2019-06-08T17:14:42.607Z,101980.29
2019-06-08T17:17:12.210Z,101984.89
2019-06-08T17:19:41.914Z,101997.27
2019-06-08T17:22:11.418Z,101998.66
2019-06-08T17:24:40.918Z,101997.14
2019-06-08T17:27:25.766Z,102002.69
2019-06-08T17:29:41.971Z,102005.39
2019-06-08T17:32:13.005Z,102005.80
2019-06-08T17:34:42.544Z,102010.59
2019-06-08T17:37:12.079Z,102007.03
2019-06-08T17:39:42.281Z,102015.70
2019-06-08T17:42:12.259Z,102012.73
2019-06-08T17:44:42.544Z,102016.56
2019-06-08T17:47:12.190Z,102016.98
2019-06-08T17:49:42.950Z,102025.34
2019-06-08T17:52:12.788Z,102020.02
2019-06-08T17:54:43.304Z,102020.02
2019-06-08T17:57:12.841Z,102018.20
2019-06-08T17:59:42.313Z,102037.38
2019-06-08T18:02:15.407Z,102031.75
2019-06-08T18:04:44.355Z,102030.63
2019-06-08T18:07:14.034Z,102037.11
2019-06-08T18:09:45.083Z,102037.06
2019-06-08T18:12:14.723Z,102039.19
2019-06-08T18:14:45.268Z,102037.55
2019-06-08T18:17:17.471Z,102040.57
2019-06-08T18:19:49.515Z,102046.38
2019-06-08T18:22:18.629Z,102043.80
2019-06-08T18:24:48.492Z,102043.06
2019-06-08T18:27:18.316Z,102053.55
2019-06-08T18:29:48.848Z,102054.42
2019-06-08T18:32:18.642Z,102057.44
2019-06-08T18:34:48.247Z,102051.70
2019-06-08T18:37:18.415Z,102057.02
2019-06-08T18:39:49.470Z,102065.42
2019-06-08T18:42:20.322Z,102070.14
2019-06-08T18:44:49.738Z,102069.98
2019-06-08T18:47:19.180Z,102074.19
2019-06-08T18:49:48.951Z,102078.64
2019-06-08T18:52:18.559Z,102071.77
2019-06-08T18:54:49.677Z,102074.50
2019-06-08T18:57:19.368Z,102078.35
2019-06-08T18:59:53.037Z,102082.30
2019-06-08T19:02:20.144Z,102084.39
2019-06-08T19:04:49.758Z,102082.26
2019-06-08T19:07:19.379Z,102094.24
2019-06-08T19:09:49.831Z,102097.37
2019-06-08T19:12:19.796Z,102097.86
2019-06-08T19:14:52.095Z,102104.97
2019-06-08T19:17:20.667Z,102104.39
2019-06-08T19:19:52.408Z,102112.79
2019-06-08T19:22:21.380Z,102111.45
2019-06-08T19:24:50.952Z,102112.10
2019-06-08T19:27:20.425Z,102118.86
2019-06-08T19:29:51.659Z,102120.77
2019-06-08T19:32:21.419Z,102126.02
2019-06-08T19:34:53.883Z,102134.15
2019-06-08T19:37:22.181Z,102127.38
2019-06-08T19:39:51.609Z,102132.66
2019-06-08T19:42:33.274Z,102137.03
2019-06-08T19:45:01.184Z,102144.50
2019-06-08T19:47:23.386Z,102153.28
2019-06-08T19:49:54.785Z,102157.65
2019-06-08T19:52:24.573Z,102155.45
2019-06-08T19:54:54.239Z,102163.11
2019-06-08T19:57:23.847Z,102167.88
2019-06-08T19:59:53.272Z,102170.07
2019-06-08T20:02:22.824Z,102184.59
2019-06-08T20:04:53.275Z,102193.30
2019-06-08T20:07:23.161Z,102195.45
2019-06-08T20:09:53.691Z,102202.47
2019-06-08T20:12:23.430Z,102210.15
2019-06-08T20:14:53.800Z,102213.34
2019-06-08T20:17:23.364Z,102213.45
2019-06-08T20:19:53.443Z,102221.39
2019-06-08T20:22:23.052Z,102222.58
2019-06-08T20:24:55.734Z,102225.77
2019-06-08T20:27:24.610Z,102224.48
2019-06-08T20:29:54.049Z,102227.38
2019-06-08T20:32:23.506Z,102231.09
2019-06-08T20:34:53.784Z,102228.95
2019-06-08T20:37:23.353Z,102234.08
2019-06-08T20:40:05.809Z,102236.84
2019-06-08T20:42:23.986Z,102245.09
2019-06-08T20:44:53.764Z,102238.71
2019-06-08T20:47:23.175Z,102239.75
2019-06-08T20:49:53.458Z,102237.91
2019-06-08T20:52:23.029Z,102242.41
2019-06-08T20:54:53.561Z,102239.13
2019-06-08T20:57:23.183Z,102249.23
2019-06-08T20:59:54.021Z,102252.31
2019-06-08T21:02:23.797Z,102249.88
2019-06-08T21:04:54.928Z,102248.12
2019-06-08T21:07:24.485Z,102255.38
2019-06-08T21:09:55.230Z,102252.06
2019-06-08T21:12:25.162Z,102255.97
2019-06-08T21:14:55.538Z,102254.45
2019-06-08T21:17:27.382Z,102254.58
2019-06-08T21:19:57.979Z,102255.20
2019-06-08T21:22:27.748Z,102259.09
2019-06-08T21:24:59.977Z,102262.59
2019-06-08T21:27:28.719Z,102263.48
2019-06-08T21:30:06.847Z,102264.80
2019-06-08T21:32:29.659Z,102267.06
2019-06-08T21:35:00.282Z,102265.41
2019-06-08T21:37:29.906Z,102265.96
2019-06-08T21:40:03.655Z,102269.05
2019-06-08T21:42:30.797Z,102262.92
2019-06-08T21:45:02.156Z,102271.80
2019-06-08T21:47:31.720Z,102275.06
2019-06-08T21:50:01.157Z,102268.54
2019-06-08T21:52:31.099Z,102271.73
2019-06-08T21:55:00.911Z,102269.44
2019-06-08T21:57:30.724Z,102267.13
2019-06-08T22:00:21.940Z,102266.83
2019-06-08T22:02:31.379Z,102269.15
2019-06-08T22:05:03.308Z,102269.09
2019-06-08T22:07:31.975Z,102268.09
2019-06-08T22:10:02.802Z,102274.72
2019-06-08T22:12:32.329Z,102265.98
2019-06-08T22:15:02.982Z,102270.95
2019-06-08T22:17:32.606Z,102271.47
2019-06-08T22:20:03.317Z,102265.22
2019-06-08T22:22:33.293Z,102277.45
2019-06-08T22:25:03.693Z,102278.33
2019-06-08T22:27:33.238Z,102274.58
2019-06-08T22:30:09.555Z,102272.16
2019-06-08T22:32:34.122Z,102276.81
2019-06-08T22:35:04.100Z,102271.31
2019-06-08T22:37:33.508Z,102272.41
2019-06-08T22:40:03.719Z,102269.66
2019-06-08T22:42:33.139Z,102272.52
2019-06-08T22:45:03.926Z,102277.06
2019-06-08T22:47:33.416Z,102273.95
2019-06-08T22:50:03.764Z,102275.88
2019-06-08T22:52:33.337Z,102276.47
2019-06-08T22:55:06.702Z,102274.38
2019-06-08T22:57:33.899Z,102275.72
2019-06-08T23:00:14.247Z,102268.73
2019-06-08T23:02:38.240Z,102275.33
2019-06-08T23:05:08.973Z,102287.16
2019-06-08T23:07:38.869Z,102279.02
2019-06-08T23:10:09.135Z,102273.53
2019-06-08T23:12:39.009Z,102274.50
2019-06-08T23:15:10.248Z,102279.23
2019-06-08T23:17:39.829Z,102272.38
2019-06-08T23:20:09.584Z,102281.66
2019-06-08T23:22:39.013Z,102274.27
2019-06-08T23:25:09.717Z,102279.88
2019-06-08T23:27:39.361Z,102282.30
2019-06-08T23:30:10.583Z,102282.86
2019-06-08T23:32:40.399Z,102287.03
2019-06-08T23:35:10.341Z,102283.70
2019-06-08T23:37:39.776Z,102283.77
2019-06-08T23:40:09.512Z,102270.25
2019-06-08T23:42:38.956Z,102278.09
2019-06-08T23:45:10.758Z,102276.23
2019-06-08T23:47:40.327Z,102280.86
2019-06-08T23:50:11.893Z,102283.78
2019-06-08T23:52:41.279Z,102278.60
2019-06-08T23:55:11.979Z,102274.35
2019-06-08T23:57:41.911Z,102279.67
